createdAt,value
2023-03-10T00:01:21.176Z,6.28
2023-03-10T00:03:51.103Z,6.43
2023-03-10T00:06:23.480Z,5.85
2023-03-10T00:08:51.026Z,7.63
2023-03-10T00:11:21.215Z,7.18
2023-03-10T00:13:49.080Z,6.15
2023-03-10T00:16:26.122Z,6.95
2023-03-10T00:18:58.841Z,5.72
2023-03-10T00:21:30.281Z,6.10
2023-03-10T00:23:58.322Z,6.22
2023-03-10T00:26:29.177Z,7.30
2023-03-10T00:28:59.180Z,7.22
2023-03-10T00:31:28.156Z,7.65
2023-03-10T00:33:56.812Z,7.38
2023-03-10T00:36:26.623Z,8.13
2023-03-10T00:38:55.497Z,7.70
2023-03-10T00:41:25.204Z,7.50
2023-03-10T00:43:52.702Z,8.38
2023-03-10T00:46:20.540Z,8.88
2023-03-10T00:48:48.009Z,8.90
2023-03-10T00:51:15.863Z,8.95
2023-03-10T00:53:43.416Z,8.75
2023-03-10T00:56:19.719Z,8.25
2023-03-10T00:58:50.193Z,8.38
2023-03-10T01:01:24.176Z,8.93
2023-03-10T01:03:55.690Z,8.73
2023-03-10T01:06:23.477Z,8.60
2023-03-10T01:08:50.877Z,8.88
2023-03-10T01:11:19.802Z,7.97
2023-03-10T01:13:50.142Z,9.07
2023-03-10T01:16:17.412Z,8.52
2023-03-10T01:18:45.119Z,8.18
2023-03-10T01:21:27.716Z,7.65
2023-03-10T01:23:55.407Z,7.75
2023-03-10T01:26:22.453Z,7.30
2023-03-10T01:28:50.285Z,7.78
2023-03-10T01:31:20.540Z,7.63
2023-03-10T01:33:48.009Z,7.28
2023-03-10T01:36:20.626Z,7.25
2023-03-10T01:38:48.305Z,6.93
2023-03-10T01:41:16.896Z,6.82
2023-03-10T01:43:50.312Z,7.63
2023-03-10T01:46:46.829Z,7.25
2023-03-10T01:49:28.031Z,6.60
2023-03-10T01:52:03.698Z,7.07
2023-03-10T01:54:38.655Z,6.40
2023-03-10T01:57:05.944Z,5.93
2023-03-10T01:59:34.488Z,5.93
2023-03-10T02:02:02.514Z,5.97
2023-03-10T02:04:42.836Z,5.30
2023-03-10T02:07:11.831Z,5.15
2023-03-10T02:09:43.651Z,4.57
2023-03-10T02:12:12.652Z,4.80
2023-03-10T02:14:45.185Z,5.10
2023-03-10T02:17:14.857Z,4.43
2023-03-10T02:20:10.996Z,4.30
2023-03-10T02:22:39.798Z,4.05
2023-03-10T02:25:28.771Z,5.03
2023-03-10T02:27:58.504Z,4.15
2023-03-10T02:30:34.502Z,3.60
2023-03-10T02:33:32.550Z,4.10
2023-03-10T02:36:26.522Z,4.18
2023-03-10T02:38:56.091Z,4.18
2023-03-10T02:41:35.005Z,3.72
2023-03-10T02:44:06.165Z,3.50
2023-03-10T02:46:36.493Z,3.60
2023-03-10T02:49:05.417Z,3.40
2023-03-10T02:51:44.763Z,3.90
2023-03-10T02:54:12.448Z,3.72
2023-03-10T02:56:42.286Z,3.00
2023-03-10T02:59:10.279Z,3.20
2023-03-10T03:01:37.857Z,3.80
2023-03-10T03:04:07.341Z,3.85
2023-03-10T03:06:34.738Z,3.30
2023-03-10T03:09:02.087Z,2.90
2023-03-10T03:11:31.792Z,3.20
2023-03-10T03:14:01.320Z,2.70
2023-03-10T03:16:28.718Z,3.00
2023-03-10T03:18:58.000Z,2.90
2023-03-10T03:21:25.348Z,2.80
2023-03-10T03:23:52.387Z,2.97
2023-03-10T03:26:24.866Z,3.30
2023-03-10T03:28:51.879Z,3.90
2023-03-10T03:31:25.713Z,3.47
2023-03-10T03:33:52.785Z,3.50
2023-03-10T03:36:20.179Z,3.83
2023-03-10T03:38:47.198Z,3.92
2023-03-10T03:41:14.601Z,3.90
2023-03-10T03:43:43.882Z,4.57
2023-03-10T03:46:11.317Z,3.58
2023-03-10T03:48:38.458Z,3.22
2023-03-10T03:51:06.016Z,3.60
2023-03-10T03:53:37.705Z,3.45
2023-03-10T03:56:07.795Z,3.10
2023-03-10T03:58:37.187Z,3.35
2023-03-10T04:03:40.101Z,3.20
2023-03-10T04:06:09.945Z,3.00
2023-03-10T04:08:37.080Z,2.30
2023-03-10T04:11:04.614Z,3.05
2023-03-10T04:13:31.693Z,1.98
2023-03-10T04:15:59.666Z,2.45
2023-03-10T04:18:27.363Z,2.83
2023-03-10T04:20:54.732Z,3.20
2023-03-10T04:23:21.829Z,2.65
2023-03-10T04:25:49.139Z,2.88
2023-03-10T04:28:16.216Z,2.70
2023-03-10T04:30:46.173Z,2.42
2023-03-10T04:33:13.369Z,2.35
2023-03-10T04:35:45.152Z,2.20
2023-03-10T04:38:14.818Z,2.55
2023-03-10T04:40:42.222Z,1.88
2023-03-10T04:43:09.249Z,2.13
2023-03-10T04:45:36.950Z,2.20
2023-03-10T04:48:04.182Z,1.83
2023-03-10T04:50:31.539Z,2.15
2023-03-10T04:53:01.053Z,2.65
2023-03-10T04:55:28.433Z,1.60
2023-03-10T04:57:55.673Z,2.25
2023-03-10T05:00:23.208Z,2.40
2023-03-10T05:02:53.456Z,2.33
2023-03-10T05:05:20.875Z,1.85
2023-03-10T05:07:50.415Z,2.03
2023-03-10T05:10:17.924Z,2.33
2023-03-10T05:12:45.072Z,2.20
2023-03-10T05:15:12.693Z,2.85
2023-03-10T05:17:39.690Z,2.47
2023-03-10T05:20:07.703Z,2.17
2023-03-10T05:22:34.908Z,2.63
2023-03-10T05:25:02.406Z,2.63
2023-03-10T05:27:29.429Z,2.70
2023-03-10T05:30:01.842Z,2.47
2023-03-10T05:32:33.700Z,2.58
2023-03-10T05:35:01.293Z,2.15
2023-03-10T05:37:28.445Z,3.10
2023-03-10T05:39:56.046Z,2.85
2023-03-10T05:42:23.076Z,2.08
2023-03-10T05:44:50.403Z,2.03
2023-03-10T05:47:17.450Z,2.42
2023-03-10T05:49:45.210Z,2.38
2023-03-10T05:52:12.300Z,2.10
2023-03-10T05:54:39.686Z,2.85
2023-03-10T05:57:06.745Z,3.03
2023-03-10T05:59:34.121Z,2.22
2023-03-10T06:02:01.160Z,2.08
2023-03-10T06:04:30.901Z,1.92
2023-03-10T06:07:01.334Z,2.50
2023-03-10T06:09:32.416Z,1.98
2023-03-10T06:12:02.475Z,1.70
2023-03-10T06:14:29.834Z,1.70
2023-03-10T06:16:59.505Z,1.98
2023-03-10T06:19:29.440Z,2.20
2023-03-10T06:21:58.739Z,2.10
2023-03-10T06:24:28.428Z,2.17
2023-03-10T06:26:58.012Z,2.00
2023-03-10T06:29:25.560Z,1.92
2023-03-10T06:31:58.428Z,2.23
2023-03-10T06:34:26.256Z,1.90
2023-03-10T06:36:57.770Z,2.00
2023-03-10T06:39:27.697Z,2.10
2023-03-10T06:41:57.232Z,2.45
2023-03-10T06:44:24.596Z,2.45
2023-03-10T06:46:51.635Z,1.77
2023-03-10T06:49:19.017Z,2.17
2023-03-10T06:51:46.068Z,1.60
2023-03-10T06:54:13.493Z,1.80
2023-03-10T06:56:42.787Z,2.50
2023-03-10T06:59:10.181Z,2.35
2023-03-10T07:01:37.263Z,1.95
2023-03-10T07:04:04.691Z,2.40
2023-03-10T07:06:31.819Z,3.40
2023-03-10T07:09:01.372Z,2.10
2023-03-10T07:11:28.498Z,2.40
2023-03-10T07:13:58.334Z,2.00
2023-03-10T07:16:27.765Z,2.30
2023-03-10T07:18:57.605Z,2.15
2023-03-10T07:21:26.867Z,2.15
2023-03-10T07:23:54.235Z,2.15
2023-03-10T07:26:21.714Z,2.50
2023-03-10T07:28:49.039Z,3.22
2023-03-10T07:31:16.923Z,2.60
2023-03-10T07:33:44.390Z,2.50
2023-03-10T07:36:14.171Z,3.17
2023-03-10T07:38:45.024Z,2.70
2023-03-10T07:41:17.077Z,2.83
2023-03-10T07:43:47.315Z,2.90
2023-03-10T07:46:15.811Z,2.72
2023-03-10T07:48:43.591Z,3.10
2023-03-10T07:51:11.087Z,2.50
2023-03-10T07:53:38.584Z,2.30
2023-03-10T07:56:07.651Z,2.47
2023-03-10T07:58:35.705Z,2.20
2023-03-10T08:01:04.114Z,3.70
2023-03-10T08:03:33.993Z,3.28
2023-03-10T08:06:01.778Z,2.13
2023-03-10T08:08:29.226Z,2.95
2023-03-10T08:11:08.165Z,2.40
2023-03-10T08:13:39.119Z,2.00
2023-03-10T08:16:07.363Z,3.30
2023-03-10T08:18:39.252Z,5.03
2023-03-10T08:21:07.111Z,1.95
2023-03-10T08:23:38.272Z,2.50
2023-03-10T08:26:08.277Z,1.90
2023-03-10T08:28:40.200Z,2.00
2023-03-10T08:31:15.993Z,1.98
2023-03-10T08:33:46.516Z,2.00
2023-03-10T08:36:22.319Z,2.20
2023-03-10T08:38:51.882Z,2.00
2023-03-10T08:41:27.733Z,1.80
2023-03-10T08:43:56.651Z,1.92
2023-03-10T08:46:25.631Z,1.55
2023-03-10T08:48:56.536Z,1.80
2023-03-10T08:51:27.018Z,1.80
2023-03-10T08:53:55.019Z,2.20
2023-03-10T08:56:23.514Z,2.00
2023-03-10T08:58:51.198Z,2.03
2023-03-10T09:01:18.257Z,2.47
2023-03-10T09:03:46.219Z,1.63
2023-03-10T09:06:14.218Z,2.17
2023-03-10T09:08:44.202Z,1.83
2023-03-10T09:11:17.422Z,1.63
2023-03-10T09:13:46.823Z,1.60
2023-03-10T09:16:14.790Z,1.95
2023-03-10T09:18:45.426Z,1.58
2023-03-10T09:21:15.501Z,2.10
2023-03-10T09:23:48.705Z,2.00
2023-03-10T09:28:45.721Z,1.80
2023-03-10T09:31:21.966Z,1.95
2023-03-10T09:33:49.955Z,2.20
2023-03-10T09:36:17.588Z,2.35
2023-03-10T09:38:45.198Z,1.95
2023-03-10T09:42:00.680Z,2.38
2023-03-10T09:44:33.836Z,2.08
2023-03-10T09:47:10.479Z,2.58
2023-03-10T09:49:42.207Z,2.05
2023-03-10T09:52:20.325Z,1.92
2023-03-10T09:55:17.077Z,2.08
2023-03-10T09:57:56.541Z,2.20
2023-03-10T10:00:33.091Z,2.00
2023-03-10T10:03:21.623Z,2.25
2023-03-10T10:05:52.341Z,2.35
2023-03-10T10:08:29.102Z,2.35
2023-03-10T10:11:02.925Z,2.05
2023-03-10T10:13:30.534Z,1.90
2023-03-10T10:16:34.265Z,2.70
2023-03-10T10:19:30.987Z,1.83
2023-03-10T10:22:17.504Z,1.80
2023-03-10T10:25:08.851Z,2.70
2023-03-10T10:27:44.051Z,1.80
2023-03-10T10:30:29.213Z,1.60
2023-03-10T10:33:02.085Z,1.63
2023-03-10T10:35:38.324Z,1.70
2023-03-10T10:38:21.215Z,1.73
2023-03-10T10:41:02.658Z,1.55
2023-03-10T10:43:31.313Z,1.63
2023-03-10T10:46:06.064Z,1.88
2023-03-10T10:48:39.464Z,1.70
2023-03-10T10:51:23.432Z,1.48
2023-03-10T10:53:53.965Z,1.27
2023-03-10T10:56:21.786Z,1.98
2023-03-10T10:59:18.011Z,1.42
2023-03-10T11:01:49.887Z,2.10
2023-03-10T11:04:17.821Z,2.10
2023-03-10T11:06:44.942Z,1.77
2023-03-10T11:09:16.801Z,1.50
2023-03-10T11:12:04.640Z,2.13
2023-03-10T11:14:31.925Z,2.00
2023-03-10T11:17:07.659Z,1.92
2023-03-10T11:20:00.663Z,1.73
2023-03-10T11:22:55.002Z,2.20
2023-03-10T11:25:28.895Z,1.98
2023-03-10T11:28:24.263Z,1.50
2023-03-10T11:33:50.415Z,2.08
2023-03-10T11:36:17.777Z,2.40
2023-03-10T11:38:52.576Z,1.60
2023-03-10T11:41:29.278Z,1.35
2023-03-10T11:44:08.591Z,1.40
2023-03-10T11:47:06.356Z,1.50
2023-03-10T11:49:40.821Z,1.65
2023-03-10T11:52:27.971Z,1.65
2023-03-10T11:55:03.622Z,1.77
2023-03-10T11:57:37.006Z,2.25
2023-03-10T12:00:18.332Z,1.70
2023-03-10T12:03:15.045Z,1.70
2023-03-10T12:05:58.478Z,1.65
2023-03-10T12:08:32.216Z,2.13
2023-03-10T12:13:35.974Z,2.05
2023-03-10T12:16:04.011Z,2.30
2023-03-10T12:18:36.246Z,2.10
2023-03-10T12:21:14.340Z,1.75
2023-03-10T12:23:47.388Z,2.22
2023-03-10T12:26:34.660Z,1.67
2023-03-10T12:29:32.515Z,2.10
2023-03-10T12:31:59.932Z,1.67
2023-03-10T12:34:29.701Z,2.15
2023-03-10T12:37:07.942Z,2.10
2023-03-10T12:39:40.722Z,2.22
2023-03-10T12:42:46.440Z,1.50
2023-03-10T12:45:16.722Z,1.70
2023-03-10T12:47:46.674Z,2.78
2023-03-10T12:50:26.258Z,1.73
2023-03-10T12:53:22.591Z,1.80
2023-03-10T12:56:15.342Z,1.67
2023-03-10T12:59:03.259Z,1.80
2023-03-10T13:01:55.535Z,1.73
2023-03-10T13:04:34.585Z,1.70
2023-03-10T13:07:04.623Z,1.45
2023-03-10T13:09:40.496Z,1.75
2023-03-10T13:12:36.808Z,1.85
2023-03-10T13:15:06.910Z,2.10
2023-03-10T13:17:34.337Z,2.00
2023-03-10T13:20:24.971Z,1.83
2023-03-10T13:22:56.574Z,1.98
2023-03-10T13:25:24.561Z,2.00
2023-03-10T13:27:54.620Z,2.20
2023-03-10T13:30:26.916Z,2.10
2023-03-10T13:33:04.620Z,1.98
2023-03-10T13:35:34.191Z,3.97
2023-03-10T13:38:14.956Z,3.13
2023-03-10T13:40:50.267Z,4.63
2023-03-10T13:43:31.567Z,2.03
2023-03-10T13:46:00.350Z,1.48
2023-03-10T13:48:39.288Z,3.05
2023-03-10T13:51:30.728Z,3.75
2023-03-10T13:54:22.506Z,3.90
2023-03-10T13:57:11.676Z,3.33
2023-03-10T13:59:43.634Z,2.30
2023-03-10T14:02:23.752Z,2.63
2023-03-10T14:04:53.769Z,2.88
2023-03-10T14:07:22.051Z,2.47
2023-03-10T14:10:04.864Z,3.13
2023-03-10T14:12:40.815Z,3.03
2023-03-10T14:15:15.057Z,2.50
2023-03-10T14:17:43.908Z,2.65
2023-03-10T14:20:13.143Z,3.55
2023-03-10T14:22:41.540Z,3.67
2023-03-10T14:25:17.415Z,3.10
2023-03-10T14:27:53.785Z,2.78
2023-03-10T14:30:25.532Z,3.15
2023-03-10T14:32:56.132Z,2.63
2023-03-10T14:35:27.075Z,2.33
2023-03-10T14:37:55.037Z,1.95
2023-03-10T14:40:26.125Z,2.50
2023-03-10T14:43:00.302Z,2.22
2023-03-10T14:45:35.228Z,2.13
2023-03-10T14:48:12.177Z,2.70
2023-03-10T14:50:41.852Z,2.60
2023-03-10T14:53:13.872Z,2.38
2023-03-10T14:55:43.455Z,2.42
2023-03-10T14:58:16.781Z,3.67
2023-03-10T15:00:44.483Z,3.30
2023-03-10T15:03:14.122Z,2.38
2023-03-10T15:05:48.700Z,2.90
2023-03-10T15:08:17.770Z,2.20
2023-03-10T15:10:48.807Z,2.60
2023-03-10T15:13:20.925Z,2.45
2023-03-10T15:15:51.630Z,2.90
2023-03-10T15:18:21.874Z,3.15
2023-03-10T15:20:50.050Z,3.65
2023-03-10T15:23:19.234Z,4.28
2023-03-10T15:25:48.020Z,4.85
2023-03-10T15:28:17.797Z,4.10
2023-03-10T15:30:56.707Z,4.10
2023-03-10T15:33:24.536Z,4.30
2023-03-10T15:35:51.674Z,2.65
2023-03-10T15:38:19.234Z,3.38
2023-03-10T15:40:48.693Z,3.72
2023-03-10T15:43:16.175Z,2.55
2023-03-10T15:45:46.066Z,4.22
2023-03-10T15:48:16.372Z,3.50
2023-03-10T15:50:46.445Z,3.45
2023-03-10T15:53:14.491Z,4.68
2023-03-10T15:55:42.449Z,4.47
2023-03-10T15:58:11.101Z,4.97
2023-03-10T16:00:38.577Z,4.95
2023-03-10T16:03:06.048Z,5.38
2023-03-10T16:05:34.494Z,6.60
2023-03-10T16:08:04.527Z,6.35
2023-03-10T16:10:34.139Z,5.05
2023-03-10T16:13:04.567Z,6.43
2023-03-10T16:15:31.816Z,5.90
2023-03-10T16:17:59.272Z,6.22
2023-03-10T16:20:29.008Z,4.68
2023-03-10T16:22:56.564Z,3.95
2023-03-10T16:25:23.761Z,3.70
2023-03-10T16:27:51.130Z,2.70
2023-03-10T16:30:19.136Z,2.78
2023-03-10T16:32:50.426Z,3.28
2023-03-10T16:35:18.474Z,2.95
2023-03-10T16:37:57.252Z,2.00
2023-03-10T16:40:33.800Z,1.80
2023-03-10T16:43:01.289Z,1.88
2023-03-10T16:45:30.881Z,1.67
2023-03-10T16:47:58.269Z,1.42
2023-03-10T16:50:32.601Z,1.65
2023-03-10T16:53:02.379Z,2.72
2023-03-10T16:55:29.577Z,1.33
2023-03-10T16:57:57.101Z,1.48
2023-03-10T17:00:28.768Z,2.05
2023-03-10T17:03:03.253Z,1.52
2023-03-10T17:05:30.551Z,1.77
2023-03-10T17:08:00.442Z,2.15
2023-03-10T17:10:27.529Z,1.83
2023-03-10T17:12:55.070Z,3.08
2023-03-10T17:15:24.777Z,3.78
2023-03-10T17:17:52.147Z,5.25
2023-03-10T17:20:26.307Z,3.97
2023-03-10T17:22:53.794Z,2.75
2023-03-10T17:25:21.177Z,3.00
2023-03-10T17:27:51.110Z,4.35
2023-03-10T17:30:18.688Z,3.95
2023-03-10T17:32:48.671Z,3.22
2023-03-10T17:35:15.815Z,2.22
2023-03-10T17:37:43.284Z,1.50
2023-03-10T17:40:13.741Z,1.25
2023-03-10T17:42:41.951Z,1.40
2023-03-10T17:45:09.711Z,1.50
2023-03-10T17:47:37.161Z,1.38
2023-03-10T17:50:04.534Z,1.35
2023-03-10T17:52:32.044Z,1.75
2023-03-10T17:54:59.145Z,1.75
2023-03-10T17:57:28.750Z,2.28
2023-03-10T17:59:58.073Z,1.92
2023-03-10T18:02:25.514Z,2.17
2023-03-10T18:04:55.225Z,1.60
2023-03-10T18:07:22.573Z,1.42
2023-03-10T18:09:49.628Z,1.67
2023-03-10T18:12:19.532Z,1.65
2023-03-10T18:14:49.048Z,1.52
2023-03-10T18:17:16.509Z,1.98
2023-03-10T18:19:52.664Z,1.70
2023-03-10T18:22:20.075Z,2.40
2023-03-10T18:24:47.234Z,2.28
2023-03-10T18:27:14.681Z,1.88
2023-03-10T18:29:44.956Z,2.33
2023-03-10T18:32:12.543Z,1.80
2023-03-10T18:34:44.371Z,1.65
2023-03-10T18:37:22.242Z,1.40
2023-03-10T18:39:54.327Z,1.88
2023-03-10T18:42:21.710Z,2.13
2023-03-10T18:44:51.866Z,2.25
2023-03-10T18:47:19.976Z,2.42
2023-03-10T18:49:47.879Z,2.10
2023-03-10T18:52:15.652Z,2.03
2023-03-10T18:54:47.203Z,2.83
2023-03-10T18:57:19.246Z,2.72
2023-03-10T18:59:46.404Z,2.97
2023-03-10T19:02:16.392Z,2.40
2023-03-10T19:04:43.978Z,2.22
2023-03-10T19:07:11.519Z,2.08
2023-03-10T19:09:38.552Z,2.38
2023-03-10T19:12:06.850Z,2.08
2023-03-10T19:14:45.060Z,2.08
2023-03-10T19:17:22.801Z,2.20
2023-03-10T19:20:00.471Z,1.75
2023-03-10T19:22:28.308Z,2.40
2023-03-10T19:24:56.411Z,1.83
2023-03-10T19:27:31.597Z,1.83
2023-03-10T19:30:01.188Z,1.85
2023-03-10T19:32:30.841Z,1.60
2023-03-10T19:35:00.339Z,1.58
2023-03-10T19:37:28.630Z,2.20
2023-03-10T19:39:55.689Z,1.60
2023-03-10T19:42:25.416Z,2.22
2023-03-10T19:44:55.104Z,2.42
2023-03-10T19:47:22.461Z,2.65
2023-03-10T19:49:53.750Z,2.92
2023-03-10T19:52:24.260Z,3.15
2023-03-10T19:54:51.861Z,2.80
2023-03-10T19:57:19.473Z,3.00
2023-03-10T19:59:49.193Z,3.67
2023-03-10T20:02:19.389Z,3.42
2023-03-10T20:04:46.672Z,3.00
2023-03-10T20:07:16.584Z,2.90
2023-03-10T20:09:45.715Z,3.90
2023-03-10T20:12:18.799Z,3.05
2023-03-10T20:14:55.705Z,3.10
2023-03-10T20:17:23.023Z,3.80
2023-03-10T20:19:55.724Z,3.60
2023-03-10T20:22:36.029Z,3.08
2023-03-10T20:25:03.203Z,3.22
2023-03-10T20:27:30.598Z,3.30
2023-03-10T20:29:59.882Z,4.35
2023-03-10T20:32:27.340Z,3.40
2023-03-10T20:34:54.449Z,3.03
2023-03-10T20:37:24.190Z,2.85
2023-03-10T20:39:53.715Z,2.67
2023-03-10T20:42:23.527Z,2.72
2023-03-10T20:44:52.754Z,2.80
2023-03-10T20:47:20.132Z,3.28
2023-03-10T20:49:49.389Z,2.60
2023-03-10T20:52:16.732Z,2.95
2023-03-10T20:54:43.772Z,2.22
2023-03-10T20:57:13.701Z,2.47
2023-03-10T20:59:45.860Z,2.70
2023-03-10T21:02:17.585Z,2.03
2023-03-10T21:04:47.552Z,1.80
2023-03-10T21:10:09.225Z,2.35
2023-03-10T21:12:36.579Z,1.90
2023-03-10T21:15:07.029Z,1.75
2023-03-10T21:17:36.406Z,1.60
2023-03-10T21:20:05.346Z,1.85
2023-03-10T21:22:38.446Z,1.42
2023-03-10T21:25:11.854Z,1.38
2023-03-10T21:27:46.669Z,1.30
2023-03-10T21:30:14.359Z,1.45
2023-03-10T21:32:41.728Z,1.38
2023-03-10T21:35:09.577Z,1.90
2023-03-10T21:37:39.141Z,1.80
2023-03-10T21:40:15.204Z,1.60
2023-03-10T21:42:47.311Z,1.38
2023-03-10T21:45:20.124Z,1.63
2023-03-10T21:47:48.731Z,1.65
2023-03-10T21:50:17.597Z,1.45
2023-03-10T21:52:51.072Z,1.40
2023-03-10T21:55:23.439Z,1.90
2023-03-10T21:57:51.920Z,1.15
2023-03-10T22:00:20.616Z,1.40
2023-03-10T22:02:50.817Z,1.17
2023-03-10T22:05:21.020Z,1.45
2023-03-10T22:07:48.984Z,1.70
2023-03-10T22:10:16.772Z,1.52
2023-03-10T22:12:44.208Z,1.40
2023-03-10T22:15:16.057Z,1.33
2023-03-10T22:17:46.037Z,1.50
2023-03-10T22:20:17.121Z,1.23
2023-03-10T22:22:44.953Z,1.65
2023-03-10T22:25:12.254Z,1.48
2023-03-10T22:27:39.618Z,1.40
2023-03-10T22:30:10.338Z,1.30
2023-03-10T22:32:37.728Z,1.30
2023-03-10T22:35:05.203Z,1.35
2023-03-10T22:37:32.631Z,1.17
2023-03-10T22:39:59.799Z,1.17
2023-03-10T22:42:27.192Z,1.48
2023-03-10T22:44:56.494Z,1.67
2023-03-10T22:47:23.884Z,1.50
2023-03-10T22:49:51.804Z,1.35
2023-03-10T22:52:19.177Z,1.88
2023-03-10T22:54:48.737Z,1.35
2023-03-10T22:57:16.139Z,1.15
2023-03-10T22:59:43.152Z,1.40
2023-03-10T23:02:12.809Z,1.67
2023-03-10T23:04:40.003Z,1.40
2023-03-10T23:07:07.366Z,1.50
2023-03-10T23:09:34.398Z,1.70
2023-03-10T23:12:01.910Z,1.50
2023-03-10T23:14:31.500Z,1.52
2023-03-10T23:16:58.853Z,1.25
2023-03-10T23:19:25.928Z,1.30
2023-03-10T23:21:53.291Z,1.58
2023-03-10T23:24:22.831Z,1.30
2023-03-10T23:26:50.428Z,1.27
2023-03-10T23:29:17.462Z,1.20
2023-03-10T23:31:44.849Z,1.30
2023-03-10T23:34:11.992Z,1.20
2023-03-10T23:36:41.525Z,1.30
2023-03-10T23:39:08.553Z,1.10
2023-03-10T23:41:38.328Z,1.00
2023-03-10T23:44:05.528Z,1.15
2023-03-10T23:46:32.926Z,1.00
2023-03-10T23:49:00.051Z,1.17
2023-03-10T23:51:27.712Z,1.30
2023-03-10T23:53:56.991Z,1.83
2023-03-10T23:56:24.376Z,1.20
2023-03-10T23:58:51.525Z,1.10
